Station info - map view · info · telemetry · weather · raw · status · beacons · messages · bulletins · browse · moving · my account
Callsign, ship name or locator: Clear       
It is possible to search using wildcards (*?) after a prefix. Example: OH*
APRS station KF7DKM-5 - show graphs
Map loading...
Comment: KF7KDM D710G
Mic-E message: In service
Location: 41°43.89' N 111°48.08' W - locator DN41CR35UN - show map - static map
1.2 miles Northeast bearing 56° from River Heights, Cache County, Utah, United States [?]
1.9 miles Northeast bearing 25° from Providence, Cache County, Utah, United States
67.2 miles North bearing 4° from Salt Lake City, Salt Lake County, Utah, United States
72.5 miles North bearing 8° from West Valley City, Salt Lake County, Utah, United States
Last position: 2017-01-07 13:32:13 EST (14d 13h47m ago)
2017-01-07 11:32:13 MST local time at River Heights, United States [?]
Altitude: 4836 ft
Course: 179°
Speed: 14 MPH
Device: Kenwood: TM-D710 (rig)
Last path: KF7DKM-5>T1TSXY via KF7VJO-3*,WIDE1*,LGU*,KINPRT*,WIDE2*,qAR,AD7UI (good)
Positions stored: 815
Stations near current position of KF7DKM-5 - show more
callsign distance last heard - EST      callsign distance last heard - EST
KE7TAS-90.7 miles 306°2017-01-21 19:29:25 KD7WRA-91.2 miles 259°2016-12-29 21:09:28
RVRHTS1.2 miles 239°2017-01-15 12:48:11 N7UWX-121.3 miles 227°2017-01-21 21:56:31
N7UWX1.3 miles 227°2017-01-15 13:40:16 WA7MXZ-41.4 miles 258°2017-01-14 22:20:08
N7UWX-91.4 miles 227°2017-01-04 21:39:11 N7USU-91.4 miles 274°2017-01-14 00:32:59
WA7KMF B1.7 miles 283°2017-01-22 03:06:14 WA7KMF-B1.7 miles 283°2017-01-22 03:06:24
KG7LBP1.9 miles 203°2017-01-03 18:03:51 W7DMK-91.9 miles 11°2017-01-16 19:32:56
EW10262.0 miles 272°2017-01-22 03:18:50 LGN-HOSP2.0 miles 328°2017-01-22 03:16:19
AC7II2.1 miles 237°2017-01-21 18:20:26 W7BOZ-102.1 miles 287°2017-01-20 19:58:34
KC7CVI2.1 miles 287°2017-01-11 10:39:02 KB7ZNH2.3 miles 277°2017-01-21 18:20:00
KD7TRN-72.7 miles 320°2017-01-15 14:24:27 CW89172.8 miles 275°2017-01-22 03:16:31
Stations which heard KF7DKM-5 directly on radio –
callsign pkts first heard - EST last heard longest (tx => rx) longest at - EST
KD7GIZ-10 1 2017-01-06 20:23:52 2017-01-06 20:23:52 DN40BV > DN31XF 23.5 miles 338° 2017-01-06 20:23:52
SHEPRD 9 2017-01-06 19:50:18 2017-01-06 21:09:38 DN40BN > DN41BA 33.3 miles 5° 2017-01-06 19:50:18
N7UWX 3 2017-01-06 21:49:27 2017-01-07 13:26:19 DN41BR > DN41CR 2.1 miles 161° 2017-01-07 12:55:19
KK7DO-1 4 2017-01-06 21:12:18 2017-01-06 21:21:06 DN41AL > DN31TP 21.8 miles 295° 2017-01-06 21:21:06
WA7FFM-1 17 2017-01-06 19:02:37 2017-01-06 20:44:07 DN41AB > DN40DI 51.6 miles 164° 2017-01-06 20:44:07
WA7FFM-2 2 2017-01-06 19:04:39 2017-01-06 19:16:54 DN40DG > DN40CC 13.1 miles 210° 2017-01-06 19:16:54
N7WFM-2 2 2017-01-06 21:20:37 2017-01-06 21:21:36 DN31XL > DN31XM 3.1 miles 46° 2017-01-06 21:20:37
W7BOZ 41 2017-01-06 20:50:29 2017-01-07 13:28:53 DN31XD > DN41CS 44.7 miles 13° 2017-01-06 20:50:29
REDSPR 2 2017-01-06 21:33:00 2017-01-06 21:37:03 DN41AO > DN41HP 29.0 miles 86° 2017-01-06 21:37:03
KF7VJO-3 11 2017-01-06 21:46:55 2017-01-07 13:32:01 DN41BQ > DN41AV 15.3 miles 343° 2017-01-06 21:46:55
KF6RAL-2 10 2017-01-06 19:51:39 2017-01-06 20:26:38 DN40BW > DN30XO 23.8 miles 201° 2017-01-06 20:26:38
LGU 15 2017-01-06 21:00:34 2017-01-07 13:30:29 DN41AE > DN31VS 40.9 miles 347° 2017-01-06 21:00:34
WEBER 9 2017-01-06 20:52:47 2017-01-06 21:15:43 DN31XL > DN41AE 21.1 miles 164° 2017-01-06 21:15:43
KB7STN-3 6 2017-01-06 19:38:21 2017-01-06 19:55:32 DN40BP > DN30XL 11.6 miles 214° 2017-01-06 19:55:32
KF7ZTB-2 3 2017-01-06 18:51:27 2017-01-06 18:57:47 DN40DB > DN40DA 2.3 miles 180° 2017-01-06 18:57:47
AH2S-10 7 2017-01-06 20:17:19 2017-01-06 20:48:45 DN40BU > DN41AB 14.6 miles 347° 2017-01-06 20:17:19

Only position packets which were originated by the station are shown here. The range statistics show some extra long hops, because some digipeaters do not correctly add themselves to the digipeater path. Please check the raw packets.
About this site
This page shows real-time information collected from the Automatic Position Reporting System Internet network (APRS-IS). APRS is used by amateur (ham) radio operators to transmit real-time position information, weather data, telemetry and messages over the radio. A vehicle equipped with a GPS receiver, a VHF transmitter or HF transceiver and a small computer device called a tracker transmits it's location, speed and course in a small data packet, which is then received by a nearby iGate receiving site which forwards the packet on the Internet. Systems connected to the Internet can send information on the APRS-IS without a radio transmitter, or collect and display information transmitted anywhere in the world.
FAQ · Blog · Discussion group · Linking to aprs.fi · AIS sites · Service status · Database statistics · Advertising on aprs.fi · Technical details · API · Change log · Planned changes · Credits and thanks · Terms Of Service · iPhone/iPad APRS